createdAt,value
2022-11-05T00:00:39.045Z,21.95
2022-11-05T00:03:25.361Z,22.48
2022-11-05T00:06:12.377Z,22.52
2022-11-05T00:08:59.287Z,23.70
2022-11-05T00:11:42.991Z,22.77
2022-11-05T00:14:28.998Z,21.98
2022-11-05T00:16:57.357Z,23.70
2022-11-05T00:19:25.854Z,21.77
2022-11-05T00:22:11.535Z,22.48
2022-11-05T00:24:57.442Z,23.70
2022-11-05T00:27:28.184Z,23.45
2022-11-05T00:29:56.983Z,22.08
2022-11-05T00:32:25.588Z,20.65
2022-11-05T00:34:54.295Z,21.58
2022-11-05T00:37:22.588Z,22.17
2022-11-05T00:39:50.907Z,22.48
2022-11-05T00:42:37.212Z,21.50
2022-11-05T00:45:09.434Z,20.75
2022-11-05T00:47:55.393Z,20.10
2022-11-05T00:50:24.052Z,21.05
2022-11-05T00:52:56.544Z,20.15
2022-11-05T00:55:28.244Z,20.17
2022-11-05T00:57:57.370Z,18.85
2022-11-05T01:00:30.472Z,18.35
2022-11-05T01:03:00.678Z,18.05
2022-11-05T01:05:30.939Z,17.13
2022-11-05T01:08:00.164Z,18.40
2022-11-05T01:10:29.028Z,19.48
2022-11-05T01:12:57.586Z,19.58
2022-11-05T01:15:27.976Z,18.67
2022-11-05T01:17:56.568Z,18.95
2022-11-05T01:20:24.981Z,19.85
2022-11-05T01:22:53.367Z,20.10
2022-11-05T01:25:21.680Z,20.88
2022-11-05T01:27:49.983Z,22.02
2022-11-05T01:30:18.462Z,22.05
2022-11-05T01:32:48.093Z,20.80
2022-11-05T01:35:19.044Z,20.77
2022-11-05T01:37:47.742Z,19.75
2022-11-05T01:40:19.439Z,17.98
2022-11-05T01:42:48.607Z,18.63
2022-11-05T01:45:22.265Z,17.00
2022-11-05T01:48:02.547Z,19.13
2022-11-05T01:50:43.891Z,17.42
2022-11-05T01:53:22.986Z,17.52
2022-11-05T01:55:58.695Z,17.63
2022-11-05T01:58:33.617Z,15.63
2022-11-05T02:01:02.333Z,16.40
2022-11-05T02:03:33.257Z,17.50
2022-11-05T02:06:03.775Z,16.77
2022-11-05T02:08:50.289Z,16.20
2022-11-05T02:11:21.164Z,17.15
2022-11-05T02:13:50.607Z,18.30
2022-11-05T02:16:36.614Z,20.48
2022-11-05T02:19:50.649Z,21.90
2022-11-05T02:23:29.046Z,24.17
2022-11-05T02:26:33.909Z,23.85
2022-11-05T02:29:55.259Z,25.88
2022-11-05T02:32:51.503Z,27.35
2022-11-05T02:35:33.431Z,26.55
2022-11-05T02:38:10.276Z,26.85
2022-11-05T02:40:50.770Z,28.33
2022-11-05T02:43:30.820Z,28.25
2022-11-05T02:46:16.417Z,26.98
2022-11-05T02:48:55.064Z,27.88
2022-11-05T02:51:32.496Z,29.25
2022-11-05T02:54:13.683Z,28.45
2022-11-05T02:56:46.172Z,27.42
2022-11-05T02:59:14.397Z,28.75
2022-11-05T03:01:44.877Z,28.55
2022-11-05T03:04:17.384Z,29.75
2022-11-05T03:07:20.628Z,29.75
2022-11-05T03:10:28.337Z,31.35
2022-11-05T03:13:11.051Z,32.00
2022-11-05T03:18:31.464Z,36.67
2022-11-05T03:21:08.334Z,34.50
2022-11-05T03:23:44.017Z,37.10
2022-11-05T03:26:20.127Z,37.22
2022-11-05T03:28:55.686Z,39.65
2022-11-05T03:31:25.664Z,38.33
2022-11-05T03:33:56.688Z,40.53
2022-11-05T03:36:33.167Z,44.00
2022-11-05T03:39:08.934Z,39.80
2022-11-05T03:41:40.444Z,40.50
2022-11-05T03:44:10.631Z,43.22
2022-11-05T03:46:44.237Z,42.92
2022-11-05T03:49:19.294Z,42.33
2022-11-05T03:51:55.114Z,40.28
2022-11-05T03:54:24.021Z,43.70
2022-11-05T03:57:04.336Z,41.17
2022-11-05T03:59:39.636Z,41.83
2022-11-05T04:02:08.203Z,40.47
2022-11-05T04:04:36.539Z,42.90
2022-11-05T04:07:24.268Z,41.78
2022-11-05T04:10:09.507Z,40.85
2022-11-05T04:12:55.300Z,39.50
2022-11-05T04:15:24.774Z,40.45
2022-11-05T04:17:52.234Z,41.70
2022-11-05T04:20:38.151Z,39.50
2022-11-05T04:23:40.488Z,39.92
2022-11-05T04:26:09.065Z,39.63
2022-11-05T04:28:51.086Z,39.08
2022-11-05T04:31:19.575Z,39.47
2022-11-05T04:33:48.797Z,38.70
2022-11-05T04:36:19.725Z,38.33
2022-11-05T04:38:50.447Z,38.88
2022-11-05T04:41:19.293Z,36.30
2022-11-05T04:43:47.487Z,38.80
2022-11-05T04:46:16.911Z,34.53
2022-11-05T04:48:45.218Z,36.42
2022-11-05T04:51:13.407Z,36.28
2022-11-05T04:53:41.745Z,36.80
2022-11-05T04:56:13.291Z,33.88
2022-11-05T04:58:42.647Z,35.40
2022-11-05T05:01:14.499Z,36.60
2022-11-05T05:03:43.085Z,34.38
2022-11-05T05:06:12.612Z,36.22
2022-11-05T05:08:40.836Z,35.53
2022-11-05T05:11:18.265Z,37.08
2022-11-05T05:13:46.881Z,36.63
2022-11-05T05:16:22.501Z,35.53
2022-11-05T05:18:51.546Z,36.22
2022-11-05T05:21:39.528Z,34.38
2022-11-05T05:24:10.403Z,33.88
2022-11-05T05:26:42.252Z,36.05
2022-11-05T05:29:11.464Z,35.03
2022-11-05T05:31:40.451Z,36.13
2022-11-05T05:34:11.948Z,34.00
2022-11-05T05:36:40.690Z,35.47
2022-11-05T05:39:10.777Z,32.08
2022-11-05T05:41:40.446Z,30.75
2022-11-05T05:44:10.148Z,30.67
2022-11-05T05:46:38.718Z,28.02
2022-11-05T05:49:12.364Z,31.17
2022-11-05T05:51:42.731Z,30.80
2022-11-05T05:54:13.029Z,29.58
2022-11-05T05:56:44.349Z,28.63
2022-11-05T05:59:13.315Z,28.50
2022-11-05T06:01:41.709Z,27.40
2022-11-05T06:04:11.159Z,27.00
2022-11-05T06:06:39.647Z,26.58
2022-11-05T06:09:08.235Z,27.05
2022-11-05T06:11:37.408Z,26.20
2022-11-05T06:14:08.118Z,26.38
2022-11-05T06:16:38.982Z,23.80
2022-11-05T06:19:07.735Z,24.58
2022-11-05T06:21:36.527Z,24.20
2022-11-05T06:24:05.331Z,24.48
2022-11-05T06:26:33.926Z,24.05
2022-11-05T06:29:02.202Z,25.05
2022-11-05T06:31:31.872Z,23.65
2022-11-05T06:34:00.106Z,23.38
2022-11-05T06:36:28.477Z,24.38
2022-11-05T06:38:57.147Z,23.85
2022-11-05T06:41:25.582Z,22.45
2022-11-05T06:43:54.203Z,23.80
2022-11-05T06:46:22.640Z,23.35
2022-11-05T06:48:52.469Z,23.15
2022-11-05T06:51:20.774Z,23.05
2022-11-05T06:53:49.253Z,22.85
2022-11-05T06:56:17.429Z,23.25
2022-11-05T06:58:45.644Z,23.45
2022-11-05T07:01:15.153Z,22.00
2022-11-05T07:03:45.072Z,21.90
2022-11-05T07:06:15.101Z,22.05
2022-11-05T07:08:43.361Z,23.73
2022-11-05T07:11:11.593Z,22.92
2022-11-05T07:13:39.804Z,19.83
2022-11-05T07:16:08.707Z,23.02
2022-11-05T07:18:37.137Z,21.05
2022-11-05T07:21:05.923Z,21.50
2022-11-05T07:23:35.799Z,21.10
2022-11-05T07:26:04.201Z,21.20
2022-11-05T07:28:32.438Z,21.27
2022-11-05T07:31:00.857Z,21.70
2022-11-05T07:33:36.158Z,20.63
2022-11-05T07:36:05.224Z,21.42
2022-11-05T07:38:35.089Z,20.65
2022-11-05T07:41:03.406Z,19.55
2022-11-05T07:43:31.850Z,19.42
2022-11-05T07:46:00.347Z,18.73
2022-11-05T07:48:28.500Z,19.45
2022-11-05T07:50:56.729Z,20.10
2022-11-05T07:53:24.958Z,19.33
2022-11-05T07:55:57.044Z,20.45
2022-11-05T07:58:25.377Z,19.95
2022-11-05T08:00:54.001Z,22.05
2022-11-05T08:03:22.612Z,21.15
2022-11-05T08:05:52.097Z,22.52
2022-11-05T08:08:21.085Z,20.25
2022-11-05T08:10:50.623Z,20.00
2022-11-05T08:13:20.514Z,21.10
2022-11-05T08:15:48.877Z,20.88
2022-11-05T08:18:18.824Z,19.75
2022-11-05T08:20:48.471Z,19.35
2022-11-05T08:23:17.180Z,20.42
2022-11-05T08:25:45.405Z,21.60
2022-11-05T08:28:14.517Z,20.00
2022-11-05T08:30:44.175Z,21.08
2022-11-05T08:33:15.478Z,21.30
2022-11-05T08:35:44.437Z,21.33
2022-11-05T08:38:15.417Z,21.08
2022-11-05T08:40:46.903Z,19.60
2022-11-05T08:43:15.871Z,20.35
2022-11-05T08:45:46.329Z,18.90
2022-11-05T08:48:17.149Z,16.92
2022-11-05T08:50:47.237Z,16.52
2022-11-05T08:53:17.254Z,15.80
2022-11-05T08:55:47.648Z,14.43
2022-11-05T08:58:17.367Z,14.57
2022-11-05T09:00:49.532Z,14.30
2022-11-05T09:03:18.936Z,14.40
2022-11-05T09:05:47.595Z,12.95
2022-11-05T09:08:18.464Z,13.23
2022-11-05T09:10:49.724Z,12.55
2022-11-05T09:13:20.025Z,13.10
2022-11-05T09:15:51.125Z,12.05
2022-11-05T09:18:22.249Z,12.07
2022-11-05T09:20:50.532Z,12.35
2022-11-05T09:23:18.847Z,10.82
2022-11-05T09:25:47.874Z,11.88
2022-11-05T09:28:19.081Z,12.05
2022-11-05T09:30:51.142Z,10.95
2022-11-05T09:33:22.419Z,11.20
2022-11-05T09:35:52.679Z,9.88
2022-11-05T09:38:21.663Z,9.80
2022-11-05T09:40:57.541Z,9.98
2022-11-05T09:43:34.731Z,9.82
2022-11-05T09:46:13.537Z,10.80
2022-11-05T09:48:43.210Z,9.55
2022-11-05T09:51:20.822Z,9.77
2022-11-05T09:53:53.586Z,8.68
2022-11-05T09:56:26.216Z,9.77
2022-11-05T09:59:01.320Z,8.57
2022-11-05T10:01:36.820Z,7.80
2022-11-05T10:04:10.751Z,8.35
2022-11-05T10:06:47.056Z,7.40
2022-11-05T10:09:23.624Z,8.35
2022-11-05T10:11:59.326Z,8.02
2022-11-05T10:14:32.261Z,8.50
2022-11-05T10:17:11.079Z,8.18
2022-11-05T10:19:47.697Z,7.82
2022-11-05T10:22:19.303Z,7.50
2022-11-05T10:24:50.211Z,7.72
2022-11-05T10:27:23.189Z,6.82
2022-11-05T10:29:52.438Z,7.53
2022-11-05T10:32:30.592Z,7.05
2022-11-05T10:35:02.761Z,6.53
2022-11-05T10:37:38.232Z,6.85
2022-11-05T10:40:21.843Z,6.43
2022-11-05T10:43:04.428Z,6.20
2022-11-05T10:45:47.259Z,5.45
2022-11-05T10:48:57.180Z,6.47
2022-11-05T10:51:26.672Z,5.63
2022-11-05T10:54:01.883Z,5.45
2022-11-05T10:56:34.156Z,5.78
2022-11-05T10:59:07.961Z,5.53
2022-11-05T11:01:41.436Z,5.63
2022-11-05T11:04:22.658Z,6.15
2022-11-05T11:06:53.695Z,5.28
2022-11-05T11:09:26.626Z,6.80
2022-11-05T11:12:05.732Z,7.05
2022-11-05T11:14:35.183Z,6.65
2022-11-05T11:17:27.933Z,7.10
2022-11-05T11:20:29.018Z,6.13
2022-11-05T11:23:11.611Z,7.47
2022-11-05T11:25:48.231Z,7.47
2022-11-05T11:28:23.742Z,7.07
2022-11-05T11:30:58.429Z,8.30
2022-11-05T11:33:29.793Z,6.30
2022-11-05T11:36:00.546Z,5.07
2022-11-05T11:38:33.796Z,6.20
2022-11-05T11:41:18.293Z,6.03
2022-11-05T11:43:48.464Z,6.65
2022-11-05T11:46:19.928Z,5.30
2022-11-05T11:48:55.562Z,5.22
2022-11-05T11:51:36.774Z,4.47
2022-11-05T11:54:07.027Z,3.88
2022-11-05T11:56:46.409Z,4.93
2022-11-05T11:59:40.852Z,4.85
2022-11-05T12:02:36.833Z,5.20
2022-11-05T12:05:18.790Z,4.90
2022-11-05T12:07:54.722Z,4.35
2022-11-05T12:10:37.518Z,4.93
2022-11-05T12:13:50.147Z,4.00
2022-11-05T12:16:50.715Z,3.10
2022-11-05T12:19:33.017Z,3.17
2022-11-05T12:22:13.929Z,3.60
2022-11-05T12:25:15.153Z,2.75
2022-11-05T12:28:03.202Z,2.75
2022-11-05T12:30:53.251Z,2.88
2022-11-05T12:33:37.688Z,2.80
2022-11-05T12:36:23.017Z,2.83
2022-11-05T12:39:19.236Z,2.42
2022-11-05T12:42:00.007Z,2.60
2022-11-05T12:44:54.156Z,2.40
2022-11-05T12:47:43.985Z,2.20
2022-11-05T12:50:22.065Z,1.95
2022-11-05T12:53:39.532Z,2.28
2022-11-05T12:56:16.263Z,2.38
2022-11-05T12:58:52.135Z,2.13
2022-11-05T13:01:30.148Z,1.55
2022-11-05T13:04:01.902Z,1.77
2022-11-05T13:06:35.530Z,1.90
2022-11-05T13:09:10.024Z,1.90
2022-11-05T13:11:45.275Z,1.92
2022-11-05T13:14:18.603Z,1.60
2022-11-05T13:16:51.739Z,1.88
2022-11-05T13:19:24.992Z,1.73
2022-11-05T13:21:59.209Z,1.65
2022-11-05T13:24:37.347Z,1.80
2022-11-05T13:27:24.791Z,1.55
2022-11-05T13:29:59.161Z,1.90
2022-11-05T13:32:32.971Z,2.03
2022-11-05T13:35:04.867Z,1.80
2022-11-05T13:37:55.372Z,1.70
2022-11-05T13:40:33.600Z,1.60
2022-11-05T13:43:23.813Z,1.73
2022-11-05T13:46:44.959Z,1.52
2022-11-05T13:49:51.262Z,1.65
2022-11-05T13:52:43.880Z,1.88
2022-11-05T13:55:33.555Z,1.40
2022-11-05T13:58:30.166Z,1.75
2022-11-05T14:01:10.875Z,1.40
2022-11-05T14:03:40.582Z,1.52
2022-11-05T14:06:11.927Z,1.52
2022-11-05T14:08:46.031Z,2.25
2022-11-05T14:11:24.927Z,1.63
2022-11-05T14:13:57.883Z,1.40
2022-11-05T14:16:40.934Z,2.00
2022-11-05T14:19:36.238Z,1.63
2022-11-05T14:22:30.390Z,1.85
2022-11-05T14:24:59.187Z,1.90
2022-11-05T14:27:45.869Z,1.50
2022-11-05T14:30:46.503Z,1.80
2022-11-05T14:33:33.449Z,1.60
2022-11-05T14:36:35.595Z,2.13
2022-11-05T14:39:27.387Z,2.33
2022-11-05T14:42:03.745Z,1.85
2022-11-05T14:44:35.698Z,1.95
2022-11-05T14:47:08.953Z,1.58
2022-11-05T14:49:51.288Z,2.10
2022-11-05T14:52:20.977Z,1.90
2022-11-05T14:54:53.337Z,1.85
2022-11-05T14:58:18.757Z,1.70
2022-11-05T15:00:50.416Z,1.83
2022-11-05T15:04:18.820Z,1.70
2022-11-05T15:07:33.675Z,1.70
2022-11-05T15:10:10.582Z,2.00
2022-11-05T15:12:46.988Z,2.00
2022-11-05T15:15:23.798Z,1.80
2022-11-05T15:18:03.920Z,1.92
2022-11-05T15:20:40.533Z,2.42
2022-11-05T15:23:25.391Z,3.45
2022-11-05T15:26:03.900Z,1.95
2022-11-05T15:28:39.989Z,3.00
2022-11-05T15:31:27.472Z,2.42
2022-11-05T15:34:20.328Z,2.50
2022-11-05T15:36:54.859Z,2.35
2022-11-05T15:39:32.988Z,2.83
2022-11-05T15:42:06.802Z,2.45
2022-11-05T15:44:40.268Z,2.70
2022-11-05T15:47:24.763Z,2.67
2022-11-05T15:49:56.587Z,2.65
2022-11-05T15:52:32.014Z,2.40
2022-11-05T15:55:23.561Z,2.83
2022-11-05T15:57:57.995Z,2.78
2022-11-05T16:00:29.624Z,2.30
2022-11-05T16:03:01.772Z,2.85
2022-11-05T16:05:33.464Z,2.63
2022-11-05T16:08:04.167Z,2.40
2022-11-05T16:10:37.828Z,2.97
2022-11-05T16:13:33.398Z,2.92
2022-11-05T16:16:05.455Z,2.78
2022-11-05T16:18:37.715Z,3.30
2022-11-05T16:21:09.077Z,3.55
2022-11-05T16:23:47.072Z,3.25
2022-11-05T16:27:01.291Z,3.45
2022-11-05T16:29:31.467Z,2.58
2022-11-05T16:32:01.712Z,2.90
2022-11-05T16:34:37.646Z,3.05
2022-11-05T16:37:08.878Z,3.30
2022-11-05T16:39:40.861Z,3.30
2022-11-05T16:42:40.030Z,3.10
2022-11-05T16:45:13.622Z,3.35
2022-11-05T16:47:43.064Z,3.13
2022-11-05T16:50:22.545Z,2.97
2022-11-05T16:52:51.221Z,2.85
2022-11-05T16:55:20.337Z,2.58
2022-11-05T16:57:54.084Z,3.35
2022-11-05T17:00:23.808Z,3.45
2022-11-05T17:02:52.701Z,4.20
2022-11-05T17:05:26.076Z,4.32
2022-11-05T17:07:55.908Z,4.30
2022-11-05T17:10:26.545Z,4.03
2022-11-05T17:12:57.857Z,3.58
2022-11-05T17:15:29.266Z,3.38
2022-11-05T17:17:59.938Z,3.67
2022-11-05T17:20:40.216Z,3.90
2022-11-05T17:23:12.175Z,4.15
2022-11-05T17:25:41.908Z,3.83
2022-11-05T17:28:12.862Z,5.20
2022-11-05T17:30:42.235Z,4.40
2022-11-05T17:33:11.849Z,4.43
2022-11-05T17:35:41.627Z,4.93
2022-11-05T17:38:10.021Z,4.78
2022-11-05T17:40:39.805Z,3.97
2022-11-05T17:43:08.533Z,3.97
2022-11-05T17:45:43.791Z,3.33
2022-11-05T17:48:12.359Z,4.57
2022-11-05T17:50:45.609Z,4.88
2022-11-05T17:53:15.189Z,4.80
2022-11-05T17:55:45.692Z,4.50
2022-11-05T17:58:14.580Z,4.53
2022-11-05T18:00:46.307Z,5.28
2022-11-05T18:03:16.011Z,4.75
2022-11-05T18:05:44.789Z,4.53
2022-11-05T18:08:13.563Z,4.63
2022-11-05T18:10:42.747Z,4.97
2022-11-05T18:13:12.195Z,5.25
2022-11-05T18:15:41.404Z,5.18
2022-11-05T18:18:11.501Z,5.53
2022-11-05T18:20:40.056Z,5.53
2022-11-05T18:23:08.608Z,5.68
2022-11-05T18:25:37.306Z,4.93
2022-11-05T18:28:06.050Z,5.03
2022-11-05T18:30:35.270Z,4.25
2022-11-05T18:33:03.916Z,4.93
2022-11-05T18:35:33.871Z,5.03
2022-11-05T18:38:02.210Z,5.72
2022-11-05T18:40:30.738Z,4.93
2022-11-05T18:42:58.991Z,4.82
2022-11-05T18:45:29.935Z,4.13
2022-11-05T18:47:59.775Z,4.25
2022-11-05T18:50:30.276Z,4.53
2022-11-05T18:52:59.941Z,4.57
2022-11-05T18:55:28.397Z,3.85
2022-11-05T18:57:58.539Z,3.58
2022-11-05T19:00:28.081Z,3.50
2022-11-05T19:03:00.131Z,3.55
2022-11-05T19:05:30.265Z,3.42
2022-11-05T19:08:00.356Z,3.28
2022-11-05T19:10:29.531Z,4.07
2022-11-05T19:12:58.609Z,3.58
2022-11-05T19:15:27.335Z,3.50
2022-11-05T19:17:55.803Z,4.15
2022-11-05T19:20:24.328Z,3.60
2022-11-05T19:22:52.923Z,3.50
2022-11-05T19:25:22.889Z,2.80
2022-11-05T19:27:51.170Z,3.65
2022-11-05T19:30:19.948Z,2.90
2022-11-05T19:32:48.218Z,3.42
2022-11-05T19:35:16.666Z,3.35
2022-11-05T19:37:45.078Z,2.92
2022-11-05T19:40:13.966Z,2.85
2022-11-05T19:42:43.878Z,3.45
2022-11-05T19:45:38.481Z,3.83
2022-11-05T19:48:00.931Z,2.90
2022-11-05T19:50:29.224Z,2.85
2022-11-05T19:52:57.470Z,4.07
2022-11-05T19:55:26.120Z,3.55
2022-11-05T19:57:57.744Z,3.28
2022-11-05T20:00:26.165Z,3.10
2022-11-05T20:02:54.531Z,4.32
2022-11-05T20:05:22.921Z,3.45
2022-11-05T20:07:53.279Z,3.30
2022-11-05T20:10:22.535Z,2.90
2022-11-05T20:12:51.140Z,3.15
2022-11-05T20:15:21.009Z,3.25
2022-11-05T20:17:51.575Z,2.83
2022-11-05T20:20:20.559Z,3.38
2022-11-05T20:22:49.046Z,3.47
2022-11-05T20:25:17.560Z,3.45
2022-11-05T20:27:46.377Z,3.67
2022-11-05T20:30:16.110Z,2.90
2022-11-05T20:32:45.710Z,3.10
2022-11-05T20:35:14.206Z,3.08
2022-11-05T20:37:42.907Z,3.47
2022-11-05T20:40:13.957Z,3.17
2022-11-05T20:42:43.055Z,3.33
2022-11-05T20:45:12.206Z,3.10
2022-11-05T20:47:40.664Z,3.30
2022-11-05T20:50:11.536Z,3.45
2022-11-05T20:52:40.361Z,3.05
2022-11-05T20:55:10.084Z,3.13
2022-11-05T20:57:39.515Z,3.22
2022-11-05T21:00:09.622Z,4.00
2022-11-05T21:02:41.189Z,3.20
2022-11-05T21:05:11.310Z,7.88
2022-11-05T21:07:39.867Z,12.07
2022-11-05T21:10:08.567Z,3.55
2022-11-05T21:12:36.814Z,3.10
2022-11-05T21:15:06.745Z,3.17
2022-11-05T21:17:35.033Z,3.10
2022-11-05T21:20:03.405Z,3.17
2022-11-05T21:22:33.005Z,3.22
2022-11-05T21:25:01.356Z,3.55
2022-11-05T21:27:29.581Z,2.72
2022-11-05T21:29:57.862Z,2.72
2022-11-05T21:32:26.386Z,2.92
2022-11-05T21:34:54.656Z,2.53
2022-11-05T21:37:24.146Z,3.00
2022-11-05T21:39:54.464Z,3.88
2022-11-05T21:42:22.688Z,3.72
2022-11-05T21:44:52.338Z,2.97
2022-11-05T21:47:24.500Z,3.22
2022-11-05T21:49:52.802Z,3.42
2022-11-05T21:52:35.010Z,3.30
2022-11-05T21:55:37.144Z,3.42
2022-11-05T21:58:31.107Z,2.92
2022-11-05T22:01:00.538Z,2.97
2022-11-05T22:03:29.079Z,2.88
2022-11-05T22:05:58.420Z,2.88
2022-11-05T22:08:28.294Z,2.67
2022-11-05T22:10:57.859Z,4.15
2022-11-05T22:13:27.843Z,3.00
2022-11-05T22:15:56.988Z,3.25
2022-11-05T22:18:25.312Z,3.60
2022-11-05T22:20:54.059Z,3.10
2022-11-05T22:23:22.841Z,2.75
2022-11-05T22:25:51.522Z,3.00
2022-11-05T22:28:22.999Z,2.92
2022-11-05T22:30:51.519Z,2.70
2022-11-05T22:33:19.843Z,3.03
2022-11-05T22:35:48.859Z,3.38
2022-11-05T22:38:17.206Z,3.70
2022-11-05T22:40:45.663Z,3.15
2022-11-05T22:43:14.141Z,3.60
2022-11-05T22:45:45.583Z,3.47
2022-11-05T22:48:14.325Z,3.50
2022-11-05T22:50:43.068Z,3.40
2022-11-05T22:53:11.326Z,3.33
2022-11-05T22:55:41.250Z,3.40
2022-11-05T22:58:09.947Z,3.92
2022-11-05T23:00:40.133Z,3.58
2022-11-05T23:03:10.051Z,3.00
2022-11-05T23:05:39.617Z,3.60
2022-11-05T23:08:25.787Z,2.92
2022-11-05T23:11:23.132Z,3.22
2022-11-05T23:13:51.744Z,3.40
2022-11-05T23:16:37.878Z,3.08
2022-11-05T23:19:25.837Z,3.10
2022-11-05T23:22:11.724Z,3.05
2022-11-05T23:24:40.282Z,2.65
2022-11-05T23:27:10.403Z,2.53
2022-11-05T23:29:38.698Z,2.30
2022-11-05T23:32:24.810Z,2.50
2022-11-05T23:34:58.099Z,2.78
2022-11-05T23:37:46.309Z,2.80
2022-11-05T23:40:18.683Z,2.63
2022-11-05T23:43:05.845Z,2.47
2022-11-05T23:45:52.524Z,2.50
2022-11-05T23:48:29.596Z,2.40
2022-11-05T23:51:06.205Z,2.30
2022-11-05T23:53:37.632Z,2.70
2022-11-05T23:56:09.038Z,2.45
2022-11-05T23:58:39.176Z,2.70
